createdAt,value
2022-10-07T00:01:20.152Z,9.75
2022-10-07T00:03:52.181Z,12.90
2022-10-07T00:06:23.735Z,13.48
2022-10-07T00:08:56.534Z,10.60
2022-10-07T00:11:29.141Z,11.25
2022-10-07T00:14:03.989Z,11.02
2022-10-07T00:16:39.483Z,9.38
2022-10-07T00:19:14.364Z,9.52
2022-10-07T00:21:44.914Z,11.68
2022-10-07T00:24:16.957Z,11.70
2022-10-07T00:26:49.496Z,11.15
2022-10-07T00:29:21.342Z,11.45
2022-10-07T00:31:57.238Z,10.75
2022-10-07T00:34:29.836Z,9.15
2022-10-07T00:37:00.359Z,11.88
2022-10-07T00:42:04.294Z,11.57
2022-10-07T00:44:44.924Z,10.82
2022-10-07T00:47:37.948Z,10.45
2022-10-07T00:50:19.563Z,11.20
2022-10-07T00:52:53.865Z,10.68
2022-10-07T00:55:26.980Z,12.55
2022-10-07T01:00:28.283Z,10.95
2022-10-07T01:02:57.717Z,10.20
2022-10-07T01:05:32.437Z,12.52
2022-10-07T01:08:06.888Z,16.25
2022-10-07T01:11:14.340Z,13.00
2022-10-07T01:13:55.910Z,8.02
2022-10-07T01:16:40.533Z,9.73
2022-10-07T01:19:32.715Z,9.07
2022-10-07T01:22:13.221Z,10.48
2022-10-07T01:24:49.344Z,11.77
2022-10-07T01:27:25.398Z,9.80
2022-10-07T01:30:01.971Z,11.75
2022-10-07T01:32:44.885Z,10.95
2022-10-07T01:35:21.994Z,9.65
2022-10-07T01:38:01.196Z,10.13
2022-10-07T01:40:35.256Z,9.80
2022-10-07T01:43:07.357Z,9.05
2022-10-07T01:45:42.119Z,9.85
2022-10-07T01:48:15.955Z,10.52
2022-10-07T01:50:50.223Z,9.15
2022-10-07T01:53:25.373Z,11.38
2022-10-07T01:56:13.826Z,11.60
2022-10-07T01:59:13.588Z,8.10
2022-10-07T02:01:42.736Z,9.00
2022-10-07T02:04:26.096Z,9.38
2022-10-07T02:07:34.251Z,10.37
2022-10-07T02:10:09.166Z,9.10
2022-10-07T02:12:44.398Z,8.40
2022-10-07T02:15:35.809Z,9.88
2022-10-07T02:18:09.173Z,10.23
2022-10-07T02:20:43.161Z,9.77
2022-10-07T02:23:13.671Z,9.00
2022-10-07T02:25:50.563Z,9.30
2022-10-07T02:28:23.553Z,8.55
2022-10-07T02:30:57.083Z,9.35
2022-10-07T02:33:30.684Z,9.68
2022-10-07T02:36:09.792Z,10.35
2022-10-07T02:38:40.137Z,10.38
2022-10-07T02:41:32.030Z,8.90
2022-10-07T02:44:17.524Z,11.43
2022-10-07T02:47:18.277Z,10.30
2022-10-07T02:49:53.733Z,8.95
2022-10-07T02:52:28.813Z,10.32
2022-10-07T02:55:17.659Z,9.18
2022-10-07T02:57:50.015Z,10.35
2022-10-07T03:00:20.111Z,12.68
2022-10-07T03:02:54.743Z,9.52
2022-10-07T03:05:25.946Z,10.82
2022-10-07T03:07:59.841Z,8.35
2022-10-07T03:10:30.140Z,9.40
2022-10-07T03:12:59.735Z,11.63
2022-10-07T03:15:28.329Z,8.60
2022-10-07T03:17:57.281Z,10.38
2022-10-07T03:20:28.368Z,10.13
2022-10-07T03:23:00.438Z,10.18
2022-10-07T03:25:31.691Z,21.25
2022-10-07T03:28:00.964Z,10.77
2022-10-07T03:30:30.237Z,10.68
2022-10-07T03:32:58.800Z,11.73
2022-10-07T03:35:30.351Z,9.90
2022-10-07T03:37:59.656Z,10.27
2022-10-07T03:40:28.301Z,10.55
2022-10-07T03:42:56.543Z,14.80
2022-10-07T03:45:25.460Z,10.50
2022-10-07T03:47:54.091Z,8.02
2022-10-07T03:50:26.619Z,10.73
2022-10-07T03:52:56.390Z,9.95
2022-10-07T03:55:25.939Z,11.55
2022-10-07T03:57:58.535Z,9.18
2022-10-07T04:00:29.476Z,10.20
2022-10-07T04:03:02.370Z,16.25
2022-10-07T04:05:32.074Z,15.10
2022-10-07T04:08:05.029Z,18.17
2022-10-07T04:10:34.450Z,13.98
2022-10-07T04:13:05.032Z,14.85
2022-10-07T04:15:37.888Z,13.85
2022-10-07T04:18:07.340Z,13.27
2022-10-07T04:20:38.054Z,11.23
2022-10-07T04:23:09.337Z,11.80
2022-10-07T04:25:38.619Z,12.63
2022-10-07T04:28:16.217Z,24.10
2022-10-07T04:30:49.156Z,12.75
2022-10-07T04:33:19.537Z,11.15
2022-10-07T04:35:49.040Z,11.00
2022-10-07T04:38:20.043Z,19.33
2022-10-07T04:40:50.168Z,17.17
2022-10-07T04:43:23.067Z,19.12
2022-10-07T04:45:54.524Z,21.35
2022-10-07T04:50:53.427Z,10.43
2022-10-07T04:53:23.645Z,14.27
2022-10-07T04:55:52.075Z,11.10
2022-10-07T04:58:22.491Z,14.27
2022-10-07T05:00:52.857Z,15.40
2022-10-07T05:03:25.131Z,12.95
2022-10-07T05:05:56.030Z,16.15
2022-10-07T05:08:25.820Z,13.10
2022-10-07T05:10:57.026Z,12.93
2022-10-07T05:13:28.505Z,11.82
2022-10-07T05:16:01.485Z,18.80
2022-10-07T05:18:31.338Z,14.65
2022-10-07T05:20:59.578Z,13.02
2022-10-07T05:23:31.240Z,11.90
2022-10-07T05:26:04.562Z,16.48
2022-10-07T05:28:34.950Z,9.95
2022-10-07T05:31:07.444Z,15.55
2022-10-07T05:33:37.978Z,18.08
2022-10-07T05:36:09.144Z,17.65
2022-10-07T05:38:39.904Z,15.98
2022-10-07T05:41:10.671Z,18.80
2022-10-07T05:43:42.262Z,20.77
2022-10-07T05:46:19.003Z,21.35
2022-10-07T05:48:49.018Z,18.55
2022-10-07T05:51:19.770Z,15.02
2022-10-07T05:53:47.975Z,14.73
2022-10-07T05:56:18.367Z,12.90
2022-10-07T05:58:46.706Z,14.38
2022-10-07T06:01:16.691Z,12.30
2022-10-07T06:08:46.936Z,16.92
2022-10-07T06:11:36.514Z,15.50
2022-10-07T06:14:06.997Z,16.70
2022-10-07T06:16:35.026Z,18.42
2022-10-07T06:19:03.009Z,28.12
2022-10-07T06:21:31.567Z,24.60
2022-10-07T06:26:29.662Z,15.90
2022-10-07T06:28:59.054Z,17.42
2022-10-07T06:31:28.837Z,16.15
2022-10-07T06:33:57.360Z,15.02
2022-10-07T06:36:25.460Z,14.38
2022-10-07T06:38:55.207Z,16.77
2022-10-07T06:41:24.224Z,14.15
2022-10-07T06:43:57.999Z,15.35
2022-10-07T06:46:27.272Z,16.20
2022-10-07T06:48:56.000Z,17.50
2022-10-07T06:51:24.350Z,14.65
2022-10-07T06:53:57.871Z,14.18
2022-10-07T06:56:26.864Z,17.90
2022-10-07T06:58:55.391Z,18.48
2022-10-07T07:01:23.779Z,14.00
2022-10-07T07:03:54.076Z,19.02
2022-10-07T07:06:23.251Z,16.48
2022-10-07T07:08:51.226Z,17.10
2022-10-07T07:11:37.924Z,18.30
2022-10-07T07:14:11.705Z,14.90
2022-10-07T07:16:40.664Z,12.93
2022-10-07T07:19:11.789Z,12.82
2022-10-07T07:21:41.167Z,11.85
2022-10-07T07:24:09.830Z,15.00
2022-10-07T07:26:40.485Z,14.68
2022-10-07T07:29:09.149Z,19.35
2022-10-07T07:31:37.944Z,16.95
2022-10-07T07:34:11.480Z,22.85
2022-10-07T07:36:45.578Z,16.20
2022-10-07T07:39:15.865Z,14.95
2022-10-07T07:41:48.688Z,14.02
2022-10-07T07:44:18.639Z,12.73
2022-10-07T07:46:51.280Z,13.55
2022-10-07T07:49:21.092Z,12.55
2022-10-07T07:51:50.302Z,16.67
2022-10-07T07:54:19.387Z,12.85
2022-10-07T07:56:47.399Z,13.57
2022-10-07T07:59:16.725Z,13.02
2022-10-07T08:01:45.575Z,16.62
2022-10-07T08:04:15.306Z,13.30
2022-10-07T08:06:43.610Z,12.80
2022-10-07T08:09:13.059Z,13.50
2022-10-07T08:11:45.470Z,12.20
2022-10-07T08:14:15.902Z,12.07
2022-10-07T08:16:45.235Z,11.27
2022-10-07T08:19:13.328Z,10.52
2022-10-07T08:21:41.716Z,10.68
2022-10-07T08:24:12.844Z,10.27
2022-10-07T08:26:41.193Z,9.32
2022-10-07T08:29:09.572Z,10.23
2022-10-07T08:31:38.792Z,10.40
2022-10-07T08:34:06.700Z,12.02
2022-10-07T08:36:35.089Z,9.68
2022-10-07T08:39:04.752Z,13.57
2022-10-07T08:41:49.988Z,11.30
2022-10-07T08:44:32.053Z,8.98
2022-10-07T08:47:16.439Z,10.45
2022-10-07T08:49:58.554Z,10.95
2022-10-07T08:52:37.994Z,16.37
2022-10-07T08:55:47.543Z,16.15
2022-10-07T08:58:45.603Z,10.73
2022-10-07T09:01:16.086Z,10.50
2022-10-07T09:04:02.484Z,10.00
2022-10-07T09:06:37.985Z,8.40
2022-10-07T09:09:16.274Z,12.07
2022-10-07T09:11:47.910Z,9.45
2022-10-07T09:14:25.211Z,16.37
2022-10-07T09:16:55.136Z,10.57
2022-10-07T09:19:28.848Z,15.75
2022-10-07T09:22:01.824Z,10.90
2022-10-07T09:24:31.754Z,16.10
2022-10-07T09:27:01.708Z,19.62
2022-10-07T09:29:30.865Z,36.28
2022-10-07T09:31:59.963Z,11.73
2022-10-07T09:34:29.981Z,18.30
2022-10-07T09:37:23.899Z,15.23
2022-10-07T09:39:58.076Z,10.40
2022-10-07T09:42:39.230Z,10.40
2022-10-07T09:45:25.366Z,9.70
2022-10-07T09:47:58.444Z,12.30
2022-10-07T09:50:32.712Z,12.68
2022-10-07T09:53:01.766Z,8.63
2022-10-07T09:55:40.319Z,12.75
2022-10-07T09:58:31.539Z,13.45
2022-10-07T10:01:02.268Z,12.37
2022-10-07T10:03:32.148Z,11.00
2022-10-07T10:06:11.766Z,12.97
2022-10-07T10:09:20.279Z,11.80
2022-10-07T10:12:07.612Z,9.60
2022-10-07T10:14:51.656Z,8.63
2022-10-07T10:17:40.176Z,9.90
2022-10-07T10:20:29.053Z,8.10
2022-10-07T10:22:57.513Z,8.25
2022-10-07T10:26:07.551Z,6.80
2022-10-07T10:28:51.864Z,8.57
2022-10-07T10:31:43.222Z,9.75
2022-10-07T10:34:35.043Z,8.65
2022-10-07T10:37:23.215Z,11.20
2022-10-07T10:40:03.007Z,15.48
2022-10-07T10:42:37.723Z,10.30
2022-10-07T10:45:20.399Z,7.70
2022-10-07T10:48:02.622Z,9.63
2022-10-07T10:50:45.943Z,7.22
2022-10-07T10:53:23.739Z,8.85
2022-10-07T10:56:20.736Z,9.60
2022-10-07T10:59:17.539Z,9.88
2022-10-07T11:02:00.922Z,6.28
2022-10-07T11:04:46.115Z,7.20
2022-10-07T11:07:25.562Z,9.55
2022-10-07T11:10:03.179Z,7.07
2022-10-07T11:33:29.285Z,6.22
2022-10-07T11:37:11.371Z,5.60
2022-10-07T11:45:29.349Z,8.68
2022-10-07T13:25:19.696Z,14.32
2022-10-07T13:28:04.236Z,10.45
2022-10-07T13:30:42.366Z,6.18
2022-10-07T13:33:28.431Z,8.68
2022-10-07T13:36:12.101Z,12.52
2022-10-07T13:38:40.370Z,7.12
2022-10-07T13:41:14.687Z,8.43
2022-10-07T13:44:47.529Z,6.12
2022-10-07T13:47:23.300Z,8.25
2022-10-07T13:49:55.033Z,10.18
2022-10-07T13:52:31.013Z,7.78
2022-10-07T13:55:01.827Z,7.87
2022-10-07T13:57:31.478Z,7.57
2022-10-07T14:00:03.571Z,10.25
2022-10-07T14:02:40.710Z,6.62
2022-10-07T14:05:24.106Z,9.57
2022-10-07T14:07:55.308Z,11.07
2022-10-07T14:10:25.746Z,7.95
2022-10-07T14:13:04.359Z,6.75
2022-10-07T14:15:36.355Z,5.72
2022-10-07T14:18:04.332Z,7.90
2022-10-07T14:20:33.926Z,7.35
2022-10-07T14:23:05.571Z,8.38
2022-10-07T14:26:00.411Z,7.35
2022-10-07T14:28:31.221Z,7.53
2022-10-07T14:31:25.366Z,5.70
2022-10-07T14:34:15.585Z,7.07
2022-10-07T14:37:22.574Z,5.57
2022-10-07T14:39:53.255Z,8.68
2022-10-07T14:42:27.508Z,6.72
2022-10-07T14:45:02.648Z,9.35
2022-10-07T14:47:37.955Z,8.18
2022-10-07T14:50:06.959Z,6.50
2022-10-07T14:52:44.277Z,9.23
2022-10-07T14:55:21.455Z,7.90
2022-10-07T14:57:49.890Z,6.20
2022-10-07T15:00:23.845Z,8.65
2022-10-07T15:02:57.795Z,7.75
2022-10-07T15:05:27.134Z,10.43
2022-10-07T15:07:56.442Z,9.43
2022-10-07T15:10:26.347Z,9.95
2022-10-07T15:12:56.111Z,8.77
2022-10-07T15:15:26.103Z,8.02
2022-10-07T15:17:54.773Z,9.98
2022-10-07T15:20:23.272Z,8.27
2022-10-07T15:22:52.318Z,6.62
2022-10-07T15:25:21.110Z,8.18
2022-10-07T15:27:49.536Z,6.68
2022-10-07T15:30:19.383Z,8.98
2022-10-07T15:32:48.316Z,7.97
2022-10-07T15:35:20.141Z,6.50
2022-10-07T15:37:49.230Z,12.95
2022-10-07T15:40:17.804Z,7.00
2022-10-07T15:42:48.123Z,9.48
2022-10-07T15:45:17.217Z,10.15
2022-10-07T15:47:44.982Z,10.07
2022-10-07T15:50:14.759Z,6.78
2022-10-07T15:52:42.851Z,19.08
2022-10-07T15:55:10.761Z,14.95
2022-10-07T15:57:39.856Z,10.93
2022-10-07T16:00:09.775Z,10.82
2022-10-07T16:02:39.491Z,10.10
2022-10-07T16:05:13.155Z,12.65
2022-10-07T16:07:42.243Z,9.98
2022-10-07T16:10:13.177Z,9.73
2022-10-07T16:12:41.715Z,7.97
2022-10-07T16:15:10.968Z,10.70
2022-10-07T16:17:38.951Z,8.20
2022-10-07T16:20:11.168Z,13.62
2022-10-07T16:22:40.354Z,12.07
2022-10-07T16:25:08.474Z,9.40
2022-10-07T16:27:54.533Z,11.32
2022-10-07T16:30:43.145Z,10.77
2022-10-07T16:33:12.056Z,16.87
2022-10-07T16:35:41.894Z,15.50
2022-10-07T16:38:09.330Z,22.90
2022-10-07T16:40:37.246Z,18.52
2022-10-07T16:43:05.649Z,19.10
2022-10-07T16:45:33.884Z,17.25
2022-10-07T16:48:02.946Z,24.75
2022-10-07T16:50:31.549Z,18.37
2022-10-07T16:52:59.492Z,22.17
2022-10-07T16:55:27.490Z,15.63
2022-10-07T16:57:55.235Z,18.20
2022-10-07T17:00:23.464Z,17.98
2022-10-07T17:02:51.566Z,18.85
2022-10-07T17:05:22.385Z,14.02
2022-10-07T17:07:50.802Z,14.43
2022-10-07T17:10:21.287Z,13.75
2022-10-07T17:12:51.046Z,13.15
2022-10-07T17:15:19.239Z,16.52
2022-10-07T17:17:47.604Z,14.57
2022-10-07T17:20:16.826Z,14.70
2022-10-07T17:22:44.722Z,12.65
2022-10-07T17:25:13.116Z,11.25
2022-10-07T17:27:41.274Z,13.55
2022-10-07T17:30:09.909Z,17.95
2022-10-07T17:32:38.756Z,13.18
2022-10-07T17:35:08.627Z,12.45
2022-10-07T17:37:36.858Z,17.15
2022-10-07T17:40:05.869Z,27.25
2022-10-07T17:42:34.377Z,25.50
2022-10-07T17:45:04.765Z,17.73
2022-10-07T17:47:33.673Z,20.55
2022-10-07T17:50:01.602Z,18.87
2022-10-07T17:52:32.317Z,15.32
2022-10-07T17:55:02.187Z,12.93
2022-10-07T17:57:30.214Z,13.60
2022-10-07T17:59:58.692Z,11.60
2022-10-07T18:02:28.767Z,16.02
2022-10-07T18:04:57.589Z,16.75
2022-10-07T18:07:26.589Z,13.15
2022-10-07T18:09:54.635Z,21.92
2022-10-07T18:12:41.757Z,15.73
2022-10-07T18:15:20.858Z,14.07
2022-10-07T18:17:51.575Z,11.07
2022-10-07T18:20:23.135Z,12.88
2022-10-07T18:22:57.366Z,11.30
2022-10-07T18:25:25.414Z,11.27
2022-10-07T18:27:54.651Z,15.43
2022-10-07T18:30:23.499Z,14.48
2022-10-07T18:32:52.364Z,11.70
2022-10-07T18:35:24.504Z,12.48
2022-10-07T18:37:54.519Z,12.88
2022-10-07T18:40:23.608Z,12.25
2022-10-07T18:42:53.360Z,14.57
2022-10-07T18:45:23.658Z,13.75
2022-10-07T18:47:53.007Z,12.43
2022-10-07T18:50:25.669Z,12.00
2022-10-07T18:52:57.284Z,11.90
2022-10-07T18:55:26.453Z,10.80
2022-10-07T18:57:55.135Z,16.17
2022-10-07T19:00:28.259Z,15.38
2022-10-07T19:02:57.029Z,14.30
2022-10-07T19:05:31.633Z,12.65
2022-10-07T19:08:03.299Z,16.17
2022-10-07T19:10:40.025Z,12.75
2022-10-07T19:13:34.343Z,13.82
2022-10-07T19:16:04.547Z,12.68
2022-10-07T19:18:35.748Z,13.65
2022-10-07T19:21:05.151Z,13.32
2022-10-07T19:23:33.000Z,16.42
2022-10-07T19:26:02.230Z,11.93
2022-10-07T19:28:31.408Z,12.73
2022-10-07T19:30:59.346Z,14.80
2022-10-07T19:33:28.205Z,13.20
2022-10-07T19:35:58.073Z,14.38
2022-10-07T19:38:27.220Z,19.48
2022-10-07T19:40:57.898Z,15.07
2022-10-07T19:43:26.383Z,17.83
2022-10-07T19:45:54.395Z,16.50
2022-10-07T19:48:31.215Z,14.00
2022-10-07T19:51:04.834Z,14.70
2022-10-07T19:53:36.787Z,13.98
2022-10-07T19:56:06.915Z,16.25
2022-10-07T19:58:39.378Z,14.77
2022-10-07T20:01:10.351Z,18.90
2022-10-07T20:03:38.364Z,19.42
2022-10-07T20:06:12.501Z,17.85
2022-10-07T20:08:43.687Z,20.70
2022-10-07T20:11:18.277Z,22.05
2022-10-07T20:13:46.840Z,21.95
2022-10-07T20:18:52.445Z,22.95
2022-10-07T20:21:25.071Z,22.83
2022-10-07T20:23:56.104Z,24.33
2022-10-07T20:26:30.233Z,22.62
2022-10-07T20:29:04.888Z,21.42
2022-10-07T20:31:36.414Z,24.15
2022-10-07T20:34:10.233Z,21.37
2022-10-07T20:39:34.155Z,21.02
2022-10-07T20:42:22.720Z,19.67
2022-10-07T20:44:52.230Z,22.98
2022-10-07T20:47:26.028Z,18.50
2022-10-07T20:49:57.817Z,23.42
2022-10-07T20:52:28.469Z,19.25
2022-10-07T20:54:59.945Z,20.42
2022-10-07T20:57:33.428Z,20.48
2022-10-07T21:00:03.715Z,22.50
2022-10-07T21:02:33.755Z,18.85
2022-10-07T21:05:02.497Z,18.67
2022-10-07T21:07:30.714Z,19.83
2022-10-07T21:09:59.024Z,17.75
2022-10-07T21:12:29.453Z,17.85
2022-10-07T21:15:00.590Z,17.20
2022-10-07T21:17:29.233Z,17.35
2022-10-07T21:19:57.817Z,18.23
2022-10-07T21:22:25.689Z,12.95
2022-10-07T21:24:55.564Z,21.85
2022-10-07T21:27:23.457Z,13.43
2022-10-07T21:29:51.375Z,19.77
2022-10-07T21:32:20.237Z,18.37
2022-10-07T21:34:48.921Z,16.73
2022-10-07T21:37:17.391Z,17.50
2022-10-07T21:39:45.722Z,16.00
2022-10-07T21:42:18.910Z,15.77
2022-10-07T21:44:48.198Z,19.20
2022-10-07T21:47:16.333Z,15.30
2022-10-07T21:49:45.360Z,16.75
2022-10-07T21:52:13.901Z,16.98
2022-10-07T21:54:41.754Z,19.98
2022-10-07T21:57:09.750Z,20.92
2022-10-07T21:59:39.151Z,20.90
2022-10-07T22:02:09.156Z,20.23
2022-10-07T22:04:43.947Z,19.75
2022-10-07T22:07:33.276Z,16.85
2022-10-07T22:10:08.489Z,16.70
2022-10-07T22:12:37.487Z,15.70
2022-10-07T22:15:10.461Z,18.23
2022-10-07T22:17:42.511Z,17.35
2022-10-07T22:20:16.146Z,18.50
2022-10-07T22:22:47.408Z,16.20
2022-10-07T22:25:17.284Z,18.85
2022-10-07T22:27:51.799Z,17.77
2022-10-07T22:30:26.678Z,18.65
2022-10-07T22:32:57.270Z,18.40
2022-10-07T22:35:30.529Z,16.30
2022-10-07T22:38:02.474Z,18.65
2022-10-07T22:40:32.778Z,16.05
2022-10-07T22:43:03.407Z,15.52
2022-10-07T22:45:36.810Z,15.23
2022-10-07T22:48:09.357Z,17.50
2022-10-07T22:50:40.074Z,14.87
2022-10-07T22:53:08.893Z,16.65
2022-10-07T22:55:37.815Z,17.17
2022-10-07T22:58:07.845Z,22.70
2022-10-07T23:03:11.471Z,15.63
2022-10-07T23:05:42.802Z,17.62
2022-10-07T23:08:13.809Z,16.90
2022-10-07T23:10:44.843Z,16.10
2022-10-07T23:13:16.367Z,17.87
2022-10-07T23:15:59.799Z,13.57
2022-10-07T23:18:32.145Z,14.18
2022-10-07T23:21:05.774Z,13.20
2022-10-07T23:23:39.752Z,10.95
2022-10-07T23:26:19.939Z,12.75
2022-10-07T23:28:52.573Z,13.65
2022-10-07T23:31:24.962Z,13.57
2022-10-07T23:34:02.222Z,15.23
2022-10-07T23:36:33.720Z,13.98
2022-10-07T23:39:05.016Z,16.48
2022-10-07T23:41:36.619Z,18.77
2022-10-07T23:44:09.572Z,14.75
2022-10-07T23:46:43.529Z,16.62
2022-10-07T23:49:17.730Z,17.67
2022-10-07T23:51:47.979Z,13.95
2022-10-07T23:54:18.646Z,11.40
2022-10-07T23:56:49.872Z,16.75
2022-10-07T23:59:21.636Z,15.90
